Oconomowoc, Wisconsin
Current Conditions -  °F | °C
As of 8:35 AM on Monday 20 Oct 2014 (Local Time) from KRYV Reporting Station
Broken Clouds Broken Clouds  
Wind Chill: 43°   Ceiling: 5000
Heat Index: 47°   Visibility: 10mi
Dew Point: 46°   Wind: 8mph
Humidity: 95%   Direction: 320°NW
Pressure: 29.84"   Gusts: NA
Location:  43.11°N, 88.5°W
Report Text: KRYV 201335Z AUTO 32007KT 10SM BKN050 BKN065 09/08 A2984 RMK AO2 T00850077
Loading
Personal Weather Stations






























Interactive Weather Map
Tropical Storm Tracking
New forecast layout! Learn more

10-Day Weather Forecast

Advertisements
Track Severe Weather on mobile